createdAt,value
2019-02-17T00:00:44.617Z,4.11
2019-02-17T00:03:24.293Z,4.06
2019-02-17T00:06:04.752Z,3.96
2019-02-17T00:08:43.435Z,3.90
2019-02-17T00:11:16.750Z,3.81
2019-02-17T00:13:58.503Z,3.82
2019-02-17T00:16:33.097Z,3.99
2019-02-17T00:19:12.590Z,4.13
2019-02-17T00:22:05.497Z,4.22
2019-02-17T00:24:41.876Z,4.14
2019-02-17T00:27:28.443Z,4.04
2019-02-17T00:30:23.229Z,4.00
2019-02-17T00:33:01.869Z,4.02
2019-02-17T00:35:38.775Z,3.97
2019-02-17T00:38:19.394Z,3.98
2019-02-17T00:40:55.187Z,3.89
2019-02-17T00:43:34.846Z,3.89
2019-02-17T00:46:12.741Z,3.87
2019-02-17T00:48:56.791Z,3.93
2019-02-17T00:51:28.884Z,3.90
2019-02-17T00:54:02.419Z,3.82
2019-02-17T00:56:38.996Z,3.83
2019-02-17T00:59:14.567Z,3.88
2019-02-17T01:01:56.054Z,3.93
2019-02-17T01:04:31.058Z,4.00
2019-02-17T01:08:20.095Z,3.96
2019-02-17T01:10:08.140Z,3.96
2019-02-17T01:12:50.255Z,3.88
2019-02-17T01:15:28.851Z,3.84
2019-02-17T01:18:13.283Z,3.80
2019-02-17T01:20:50.531Z,3.80
2019-02-17T01:23:24.926Z,3.72
2019-02-17T01:25:57.231Z,3.70
2019-02-17T01:28:29.514Z,3.64
2019-02-17T01:31:03.654Z,3.60
2019-02-17T01:33:39.434Z,3.58
2019-02-17T01:36:11.156Z,3.51
2019-02-17T01:38:44.023Z,3.40
2019-02-17T01:41:15.805Z,3.36
2019-02-17T01:43:48.616Z,3.37
2019-02-17T01:46:20.430Z,3.30
2019-02-17T01:48:52.193Z,3.33
2019-02-17T01:51:24.004Z,3.29
2019-02-17T01:53:55.824Z,3.17
2019-02-17T01:56:27.749Z,3.21
2019-02-17T01:58:59.526Z,3.17
2019-02-17T02:01:31.280Z,3.25
2019-02-17T02:04:03.480Z,3.23
2019-02-17T02:06:35.356Z,3.30
2019-02-17T02:09:10.883Z,3.27
2019-02-17T02:11:42.791Z,3.28
2019-02-17T02:14:14.568Z,3.23
2019-02-17T02:16:46.406Z,3.27
2019-02-17T02:19:18.227Z,3.25
2019-02-17T02:21:50.148Z,3.27
2019-02-17T02:24:21.957Z,3.28
2019-02-17T02:26:53.768Z,3.27
2019-02-17T02:29:25.627Z,3.26
2019-02-17T02:31:57.422Z,3.16
2019-02-17T02:34:29.214Z,3.12
2019-02-17T02:37:01.058Z,3.04
2019-02-17T02:39:32.827Z,3.03
2019-02-17T02:42:04.616Z,2.97
2019-02-17T02:44:36.450Z,2.95
2019-02-17T02:47:08.326Z,2.91
2019-02-17T02:49:40.155Z,2.93
2019-02-17T02:52:11.982Z,2.79
2019-02-17T02:54:43.753Z,2.75
2019-02-17T02:57:15.543Z,2.75
2019-02-17T02:59:52.460Z,2.78
2019-02-17T03:02:20.813Z,2.78
2019-02-17T03:04:52.622Z,2.87
2019-02-17T03:07:24.750Z,2.94
2019-02-17T03:09:56.701Z,2.99
2019-02-17T03:12:28.518Z,2.89
2019-02-17T03:15:01.556Z,2.81
2019-02-17T03:17:33.312Z,2.82
2019-02-17T03:20:05.426Z,2.77
2019-02-17T03:22:37.233Z,2.78
2019-02-17T03:25:09.106Z,2.71
2019-02-17T03:27:40.926Z,2.79
2019-02-17T03:30:12.718Z,2.81
2019-02-17T03:32:44.526Z,2.82
2019-02-17T03:35:16.307Z,2.75
2019-02-17T03:37:48.076Z,2.73
2019-02-17T03:40:19.902Z,2.61
2019-02-17T03:42:51.822Z,2.60
2019-02-17T03:45:23.632Z,2.63
2019-02-17T03:47:55.442Z,2.58
2019-02-17T03:50:27.261Z,2.49
2019-02-17T03:52:59.109Z,2.50
2019-02-17T03:55:30.872Z,2.46
2019-02-17T03:58:02.726Z,2.37
2019-02-17T04:00:34.540Z,2.33
2019-02-17T04:03:06.503Z,2.24
2019-02-17T04:05:38.324Z,2.22
2019-02-17T04:08:10.132Z,2.27
2019-02-17T04:10:41.948Z,2.26
2019-02-17T04:13:13.836Z,2.30
2019-02-17T04:15:46.157Z,2.26
2019-02-17T04:18:18.006Z,2.19
2019-02-17T04:20:49.830Z,2.15
2019-02-17T04:23:30.858Z,2.14
2019-02-17T04:25:56.768Z,2.13
2019-02-17T04:28:28.624Z,2.13
2019-02-17T04:31:00.437Z,2.05
2019-02-17T04:33:32.220Z,1.99
2019-02-17T04:36:04.040Z,1.93
2019-02-17T04:38:35.820Z,1.95
2019-02-17T04:41:08.693Z,1.93
2019-02-17T04:43:40.489Z,1.99
2019-02-17T04:46:12.348Z,2.02
2019-02-17T04:48:44.172Z,1.99
2019-02-17T04:51:15.992Z,1.96
2019-02-17T04:53:47.748Z,1.92
2019-02-17T04:56:19.616Z,1.91
2019-02-17T04:58:51.436Z,1.88
2019-02-17T05:01:23.300Z,1.85
2019-02-17T05:03:55.132Z,1.81
2019-02-17T05:06:26.917Z,1.78
2019-02-17T05:09:00.471Z,1.81
2019-02-17T05:11:33.924Z,1.77
2019-02-17T05:14:05.729Z,1.74
2019-02-17T05:16:37.498Z,1.73
2019-02-17T05:19:09.454Z,1.73
2019-02-17T05:21:41.252Z,1.69
2019-02-17T05:24:13.137Z,1.60
2019-02-17T05:26:44.940Z,1.56
2019-02-17T05:29:16.752Z,1.64
2019-02-17T05:31:48.535Z,1.70
2019-02-17T05:34:20.334Z,1.66
2019-02-17T05:36:52.104Z,1.61
2019-02-17T05:39:23.911Z,1.60
2019-02-17T05:41:55.782Z,1.59
2019-02-17T05:44:27.600Z,1.58
2019-02-17T05:46:59.465Z,1.53
2019-02-17T05:49:31.316Z,1.44
2019-02-17T05:52:03.196Z,1.36
2019-02-17T05:54:35.028Z,1.34
2019-02-17T05:57:06.868Z,1.37
2019-02-17T05:59:38.703Z,1.43
2019-02-17T06:02:11.514Z,1.38
2019-02-17T06:04:43.356Z,1.36
2019-02-17T06:07:15.145Z,1.34
2019-02-17T06:09:47.077Z,1.34
2019-02-17T06:12:18.886Z,1.34
2019-02-17T06:14:50.654Z,1.39
2019-02-17T06:17:22.462Z,1.37
2019-02-17T06:19:54.249Z,1.37
2019-02-17T06:22:26.120Z,1.43
2019-02-17T06:24:57.988Z,1.41
2019-02-17T06:27:29.812Z,1.42
2019-02-17T06:30:01.662Z,1.47
2019-02-17T06:32:34.740Z,1.52
2019-02-17T06:35:06.836Z,1.57
2019-02-17T06:37:38.688Z,1.61
2019-02-17T06:40:10.529Z,1.71
2019-02-17T06:42:42.281Z,1.70
2019-02-17T06:45:14.249Z,1.69
2019-02-17T06:47:46.088Z,1.77
2019-02-17T06:50:17.978Z,1.80
2019-02-17T06:52:49.892Z,1.84
2019-02-17T06:55:35.744Z,1.92
2019-02-17T06:58:07.762Z,1.97
2019-02-17T07:00:45.432Z,2.05
2019-02-17T07:03:17.278Z,2.10
2019-02-17T07:06:10.736Z,2.23
2019-02-17T07:08:42.564Z,2.33
2019-02-17T07:11:14.474Z,2.40
2019-02-17T07:13:46.277Z,2.47
2019-02-17T07:16:19.825Z,2.57
2019-02-17T07:18:51.790Z,2.72
2019-02-17T07:21:23.747Z,2.79
2019-02-17T07:23:56.645Z,2.88
2019-02-17T07:26:28.500Z,2.94
2019-02-17T07:29:00.436Z,3.04
2019-02-17T07:31:34.803Z,3.12
2019-02-17T07:34:05.892Z,3.21
2019-02-17T07:36:37.721Z,3.32
2019-02-17T07:39:09.584Z,3.42
2019-02-17T07:47:38.133Z,3.77
2019-02-17T07:50:08.026Z,3.90
2019-02-17T07:52:48.364Z,4.03
2019-02-17T07:55:17.293Z,4.14
2019-02-17T07:57:49.212Z,4.26
2019-02-17T08:00:21.066Z,4.44
2019-02-17T08:02:52.873Z,4.62
2019-02-17T08:05:24.723Z,4.77
2019-02-17T08:07:56.626Z,4.91
2019-02-17T08:10:28.553Z,5.03
2019-02-17T08:13:00.402Z,5.17
2019-02-17T08:15:32.173Z,5.24
2019-02-17T08:18:05.144Z,5.37
2019-02-17T08:20:37.004Z,5.49
2019-02-17T08:23:10.487Z,5.59
2019-02-17T08:25:42.325Z,5.72
2019-02-17T08:28:14.132Z,5.82
2019-02-17T08:30:46.041Z,5.96
2019-02-17T08:33:18.821Z,6.06
2019-02-17T08:35:50.643Z,6.17
2019-02-17T08:38:22.460Z,6.27
2019-02-17T08:40:54.296Z,6.35
2019-02-17T08:43:26.128Z,6.47
2019-02-17T08:45:57.973Z,6.58
2019-02-17T08:48:29.803Z,6.63
2019-02-17T08:51:01.639Z,6.72
2019-02-17T08:53:33.413Z,6.87
2019-02-17T08:56:05.209Z,7.06
2019-02-17T08:58:38.749Z,7.19
2019-02-17T09:01:12.982Z,7.31
2019-02-17T09:03:45.003Z,7.38
2019-02-17T09:06:16.767Z,7.48
2019-02-17T09:08:48.632Z,7.57
2019-02-17T09:11:20.439Z,7.62
2019-02-17T09:13:55.235Z,7.69
2019-02-17T09:16:29.273Z,7.82
2019-02-17T09:19:01.099Z,7.88
2019-02-17T09:21:34.419Z,7.96
2019-02-17T09:24:06.275Z,8.06
2019-02-17T09:26:56.479Z,8.08
2019-02-17T09:29:28.777Z,8.15
2019-02-17T09:32:01.704Z,8.25
2019-02-17T09:34:35.889Z,8.32
2019-02-17T09:37:08.059Z,8.36
2019-02-17T09:39:39.859Z,8.39
2019-02-17T09:42:11.746Z,8.46
2019-02-17T09:44:44.574Z,8.55
2019-02-17T09:47:16.407Z,8.66
2019-02-17T09:49:48.360Z,8.81
2019-02-17T09:52:20.445Z,8.93
2019-02-17T09:54:52.502Z,9.01
2019-02-17T09:57:24.392Z,9.06
2019-02-17T09:59:57.231Z,9.18
2019-02-17T10:02:29.076Z,9.30
2019-02-17T10:05:00.911Z,9.40
2019-02-17T10:07:36.246Z,9.49
2019-02-17T10:10:13.808Z,9.53
2019-02-17T10:12:48.708Z,9.61
2019-02-17T10:15:24.476Z,9.69
2019-02-17T10:17:56.320Z,9.75
2019-02-17T10:20:28.177Z,9.81
2019-02-17T10:23:01.809Z,9.97
2019-02-17T10:25:36.026Z,10.03
2019-02-17T10:28:07.962Z,10.09
2019-02-17T10:30:39.857Z,10.11
2019-02-17T10:33:11.726Z,10.17
2019-02-17T10:35:43.649Z,10.21
2019-02-17T10:38:15.645Z,10.27
2019-02-17T10:40:51.532Z,10.37
2019-02-17T10:43:25.882Z,10.48
2019-02-17T10:45:58.812Z,10.54
2019-02-17T10:48:34.968Z,10.64
2019-02-17T10:51:06.892Z,10.72
2019-02-17T10:53:43.933Z,10.80
2019-02-17T10:56:17.608Z,10.88
2019-02-17T10:58:49.764Z,10.98
2019-02-17T11:01:29.656Z,11.09
2019-02-17T11:04:06.378Z,11.18
2019-02-17T11:06:39.338Z,11.34
2019-02-17T11:09:20.340Z,11.33
2019-02-17T11:11:52.752Z,11.37
2019-02-17T11:14:24.762Z,11.48
2019-02-17T11:16:56.661Z,11.57
2019-02-17T11:19:30.775Z,11.64
2019-02-17T11:22:02.724Z,11.69
2019-02-17T11:24:34.839Z,11.65
2019-02-17T11:27:08.469Z,11.66
2019-02-17T11:29:40.450Z,11.75
2019-02-17T11:32:15.548Z,11.75
2019-02-17T11:34:48.957Z,11.82
2019-02-17T11:37:20.824Z,11.93
2019-02-17T11:39:55.426Z,12.02
2019-02-17T11:42:33.521Z,12.03
2019-02-17T11:45:12.450Z,12.13
2019-02-17T11:47:44.740Z,12.27
2019-02-17T11:50:16.911Z,12.33
2019-02-17T11:52:48.840Z,12.36
2019-02-17T11:55:22.789Z,12.37
2019-02-17T11:57:54.356Z,12.41
2019-02-17T12:00:26.290Z,12.45
2019-02-17T12:03:07.533Z,12.49
2019-02-17T12:05:31.891Z,12.55
2019-02-17T12:08:03.791Z,12.63
2019-02-17T12:10:35.638Z,12.67
2019-02-17T12:13:07.507Z,12.68
2019-02-17T12:15:44.463Z,12.69
2019-02-17T12:18:16.780Z,12.74
2019-02-17T12:21:11.715Z,12.74
2019-02-17T12:23:51.656Z,12.80
2019-02-17T12:30:24.156Z,12.87
2019-02-17T12:32:59.785Z,12.94
2019-02-17T12:35:31.746Z,12.95
2019-02-17T12:38:06.137Z,12.94
2019-02-17T12:40:42.258Z,12.97
2019-02-17T12:43:20.744Z,13.02
2019-02-17T12:45:54.568Z,13.01
2019-02-17T12:48:31.927Z,13.05
2019-02-17T12:51:12.149Z,13.07
2019-02-17T12:53:47.814Z,13.03
2019-02-17T12:56:19.484Z,13.00
2019-02-17T12:58:51.415Z,13.01
2019-02-17T13:01:23.230Z,13.02
2019-02-17T13:03:55.208Z,13.00
2019-02-17T13:06:27.124Z,13.01
2019-02-17T13:08:59.011Z,12.93
2019-02-17T13:11:30.932Z,12.93
2019-02-17T13:14:02.770Z,12.90
2019-02-17T13:16:34.681Z,12.91
2019-02-17T13:19:06.537Z,12.92
2019-02-17T13:21:38.483Z,12.91
2019-02-17T13:24:10.353Z,12.89
2019-02-17T13:26:42.439Z,12.89
2019-02-17T13:29:14.407Z,12.87
2019-02-17T13:31:46.310Z,12.88
2019-02-17T13:34:18.167Z,12.81
2019-02-17T13:36:50.173Z,12.82
2019-02-17T13:39:22.071Z,12.76
2019-02-17T13:50:43.814Z,12.61
2019-02-17T14:05:45.268Z,12.63
2019-02-17T14:08:19.006Z,12.58
2019-02-17T14:10:54.257Z,12.61
2019-02-17T14:13:26.605Z,12.56
2019-02-17T14:15:58.978Z,12.52
2019-02-17T14:18:34.276Z,12.59
2019-02-17T14:21:06.518Z,12.55
2019-02-17T14:23:40.150Z,12.49
2019-02-17T14:26:15.294Z,12.45
2019-02-17T14:28:48.434Z,12.39
2019-02-17T14:31:20.653Z,12.39
2019-02-17T14:33:58.663Z,12.47
2019-02-17T14:36:29.082Z,12.49
2019-02-17T14:39:03.669Z,12.56
2019-02-17T14:41:39.654Z,12.48
2019-02-17T14:44:12.108Z,12.49
2019-02-17T14:46:46.934Z,12.48
2019-02-17T14:49:22.182Z,12.55
2019-02-17T14:51:54.600Z,12.46
2019-02-17T14:54:47.330Z,12.55
2019-02-17T14:57:11.489Z,12.44
2019-02-17T14:59:43.653Z,12.50
2019-02-17T15:02:21.916Z,12.54
2019-02-17T15:05:04.547Z,12.54
2019-02-17T15:07:34.852Z,12.50
2019-02-17T15:10:17.510Z,12.59
2019-02-17T15:15:56.258Z,12.50
2019-02-17T15:18:58.602Z,12.32
2019-02-17T15:22:01.198Z,12.29
2019-02-17T15:24:38.646Z,12.24
2019-02-17T15:27:20.008Z,12.12
2019-02-17T15:30:18.894Z,12.01
2019-02-17T15:32:51.595Z,11.92
2019-02-17T15:35:36.000Z,11.85
2019-02-17T15:38:13.058Z,11.76
2019-02-17T15:40:54.279Z,11.68
2019-02-17T15:43:26.322Z,11.60
2019-02-17T15:46:41.364Z,11.54
2019-02-17T15:49:17.039Z,11.47
2019-02-17T15:52:07.926Z,11.32
2019-02-17T15:54:47.389Z,11.42
2019-02-17T15:57:38.023Z,11.52
2019-02-17T16:00:27.771Z,11.61
2019-02-17T16:03:02.281Z,11.51
2019-02-17T16:05:38.964Z,11.22
2019-02-17T16:08:19.453Z,10.92
2019-02-17T16:11:00.161Z,10.71
2019-02-17T16:13:39.330Z,10.55
2019-02-17T16:16:13.135Z,10.38
2019-02-17T16:19:00.971Z,10.27
2019-02-17T16:21:33.260Z,10.62
2019-02-17T16:24:07.292Z,10.51
2019-02-17T16:26:46.135Z,10.21
2019-02-17T17:37:22.533Z,7.26
2019-02-17T17:40:46.013Z,7.10
2019-02-17T17:43:16.127Z,7.14
2019-02-17T17:45:54.228Z,7.11
2019-02-17T17:48:35.289Z,7.01
2019-02-17T17:51:11.349Z,6.96
2019-02-17T17:53:43.583Z,6.87
2019-02-17T17:56:18.770Z,6.75
2019-02-17T17:58:50.835Z,6.71
2019-02-17T18:01:22.979Z,6.72
2019-02-17T18:03:57.217Z,6.62
2019-02-17T18:06:34.043Z,6.53
2019-02-17T18:09:11.447Z,6.45
2019-02-17T18:11:47.205Z,6.52
2019-02-17T18:15:05.254Z,6.50
2019-02-17T18:17:53.824Z,6.65
2019-02-17T18:21:28.093Z,6.82
2019-02-17T18:33:02.955Z,7.05
2019-02-17T18:34:52.269Z,7.07
2019-02-17T18:37:24.206Z,7.10
2019-02-17T18:39:56.252Z,7.20
2019-02-17T18:42:28.304Z,7.08
2019-02-17T18:45:00.382Z,6.99
2019-02-17T18:47:32.469Z,6.93
2019-02-17T18:50:06.094Z,6.87
2019-02-17T18:52:38.024Z,6.74
2019-02-17T18:55:10.447Z,6.56
2019-02-17T18:57:49.951Z,6.29
2019-02-17T19:00:17.776Z,6.03
2019-02-17T19:02:49.889Z,5.83
2019-02-17T19:05:31.537Z,5.68
2019-02-17T19:08:51.471Z,5.56
2019-02-17T19:11:19.960Z,5.57
2019-02-17T19:13:52.626Z,5.62
2019-02-17T19:16:24.708Z,5.59
2019-02-17T19:18:56.780Z,5.58
2019-02-17T19:21:28.599Z,5.52
2019-02-17T19:24:01.905Z,5.45
2019-02-17T19:26:33.901Z,5.36
2019-02-17T19:29:05.890Z,5.25
2019-02-17T19:31:38.043Z,5.19
2019-02-17T19:34:11.044Z,5.20
2019-02-17T19:36:43.020Z,5.27
2019-02-17T19:39:14.980Z,5.41
2019-02-17T19:41:47.144Z,5.52
2019-02-17T19:44:19.167Z,5.59
2019-02-17T19:46:51.238Z,5.56
2019-02-17T19:49:23.211Z,5.52
2019-02-17T19:51:55.125Z,5.53
2019-02-17T19:54:27.024Z,5.55
2019-02-17T19:56:59.155Z,5.57
2019-02-17T19:59:32.247Z,5.55
2019-02-17T20:02:06.058Z,5.50
2019-02-17T20:04:42.794Z,5.38
2019-02-17T20:07:16.022Z,5.37
2019-02-17T20:09:48.607Z,5.40
2019-02-17T20:12:20.742Z,5.34
2019-02-17T20:14:52.960Z,5.34
2019-02-17T20:17:25.045Z,5.26
2019-02-17T20:19:56.992Z,5.18
2019-02-17T20:22:29.044Z,5.22
2019-02-17T20:25:01.081Z,5.26
2019-02-17T20:27:34.305Z,5.24
2019-02-17T20:30:06.710Z,5.20
2019-02-17T20:32:38.692Z,4.82
2019-02-17T20:35:10.716Z,5.09
2019-02-17T20:37:42.775Z,5.06
2019-02-17T20:40:14.763Z,4.98
2019-02-17T20:42:46.667Z,4.88
2019-02-17T20:45:18.520Z,4.80
2019-02-17T20:47:50.347Z,4.75
2019-02-17T20:50:22.196Z,4.81
2019-02-17T20:52:54.125Z,4.81
2019-02-17T20:55:26.045Z,4.76
2019-02-17T20:57:57.937Z,4.74
2019-02-17T21:00:30.128Z,4.73
2019-02-17T21:03:01.973Z,4.71
2019-02-17T21:05:33.896Z,4.66
2019-02-17T21:08:05.759Z,4.69
2019-02-17T21:10:37.833Z,4.66
2019-02-17T21:13:09.869Z,4.60
2019-02-17T21:15:41.733Z,4.52
2019-02-17T21:18:13.734Z,4.60
2019-02-17T21:20:45.908Z,4.63
2019-02-17T21:23:18.155Z,4.52
2019-02-17T21:25:50.173Z,4.48
2019-02-17T21:28:22.055Z,4.44
2019-02-17T21:30:53.935Z,4.41
2019-02-17T21:33:25.748Z,4.39
2019-02-17T21:35:57.693Z,4.42
2019-02-17T21:38:29.685Z,4.38
2019-02-17T21:41:08.930Z,4.30
2019-02-17T21:43:35.173Z,4.26
2019-02-17T21:46:07.033Z,4.17
2019-02-17T21:48:38.895Z,4.14
2019-02-17T21:51:10.833Z,4.07
2019-02-17T21:53:42.803Z,4.01
2019-02-17T21:56:14.867Z,3.99
2019-02-17T21:58:46.772Z,3.93
2019-02-17T22:01:18.763Z,3.90
2019-02-17T22:03:51.060Z,3.92
2019-02-17T22:06:32.907Z,3.91
2019-02-17T22:08:56.525Z,3.93
2019-02-17T22:11:29.559Z,3.92
2019-02-17T22:14:01.439Z,3.89
2019-02-17T22:16:33.354Z,3.84
2019-02-17T22:19:05.193Z,3.84
2019-02-17T22:21:37.153Z,3.82
2019-02-17T22:24:09.047Z,3.77
2019-02-17T22:26:40.999Z,3.68
2019-02-17T22:29:13.100Z,3.59
2019-02-17T22:31:45.022Z,3.51
2019-02-17T22:34:16.976Z,3.52
2019-02-17T22:36:48.934Z,3.49
2019-02-17T22:39:20.821Z,3.52
2019-02-17T22:41:52.805Z,3.47
2019-02-17T22:44:25.702Z,3.41
2019-02-17T22:46:57.674Z,3.42
2019-02-17T22:49:29.580Z,3.41
2019-02-17T22:52:01.514Z,3.40
2019-02-17T22:54:33.478Z,3.38
2019-02-17T22:57:05.425Z,3.42
2019-02-17T22:59:37.418Z,3.49
2019-02-17T23:02:11.815Z,3.54
2019-02-17T23:04:43.290Z,3.52
2019-02-17T23:07:15.234Z,3.43
2019-02-17T23:09:47.201Z,3.41
2019-02-17T23:12:19.151Z,3.54
2019-02-17T23:14:51.110Z,3.57
2019-02-17T23:17:22.995Z,3.51
2019-02-17T23:19:54.811Z,3.44
2019-02-17T23:22:26.663Z,3.36
2019-02-17T23:24:58.634Z,3.37
2019-02-17T23:27:30.492Z,3.37
2019-02-17T23:30:02.415Z,3.40
2019-02-17T23:32:35.856Z,3.33
2019-02-17T23:35:09.222Z,3.27
2019-02-17T23:37:40.980Z,3.20
2019-02-17T23:40:13.113Z,3.19
2019-02-17T23:42:44.962Z,3.14
2019-02-17T23:45:16.824Z,3.18
2019-02-17T23:47:48.753Z,3.15
2019-02-17T23:50:20.622Z,3.19
2019-02-17T23:52:54.490Z,3.17
2019-02-17T23:55:26.142Z,3.03
2019-02-17T23:57:58.045Z,3.02
